Time;durP1;ratioP1;P1;durP2;ratioP2;P2;SDS_P1;SDS_P2;PMS_P1;PMS_P2;Temp;Humidity;BMP_temperature;BMP_pressure;BME280_temperature;BME280_humidity;BME280_pressure;Samples;Min_cycle;Max_cycle;Signal;HPM_P1;HPM_P2
2021/03/30 00:02:25;;;;;;;21.48;3.15;;;34.60;12.80;;;;;;5119805;27;20121;-62
2021/03/30 00:04:51;;;;;;;16.27;3.38;;;34.60;13.10;;;;;;5117369;27;20484;-61
2021/03/30 00:07:18;;;;;;;20.00;3.03;;;34.50;13.10;;;;;;5115033;27;20938;-60
2021/03/30 00:09:45;;;;;;;16.65;3.03;;;34.40;13.30;;;;;;5119485;27;20648;-62
2021/03/30 00:12:11;;;;;;;19.05;2.80;;;34.20;13.90;;;;;;5112896;27;20172;-59
2021/03/30 00:14:38;;;;;;;21.50;3.53;;;34.10;14.20;;;;;;5118784;27;20115;-62
2021/03/30 00:17:04;;;;;;;17.33;2.63;;;34.10;14.00;;;;;;5119431;27;20072;-63
2021/03/30 00:19:31;;;;;;;16.42;2.75;;;34.10;13.60;;;;;;5120399;27;20076;-61
2021/03/30 00:21:58;;;;;;;19.58;2.42;;;34.00;13.70;;;;;;5120589;27;20163;-61
2021/03/30 00:24:26;;;;;;;40.83;4.57;;;34.10;13.80;;;;;;5115157;27;20095;-60
2021/03/30 00:26:53;;;;;;;18.13;2.65;;;34.10;13.90;;;;;;5099417;27;20072;-62
2021/03/30 00:29:20;;;;;;;25.05;3.03;;;34.10;14.20;;;;;;5096833;27;20187;-59
2021/03/30 00:31:47;;;;;;;22.08;3.05;;;34.10;14.50;;;;;;5113002;27;20080;-62
2021/03/30 00:34:13;;;;;;;28.63;3.92;;;34.00;13.80;;;;;;5118532;27;20080;-60
2021/03/30 00:36:40;;;;;;;24.27;3.47;;;34.00;13.50;;;;;;5112054;27;20072;-62
2021/03/30 00:39:07;;;;;;;15.82;2.97;;;34.00;13.60;;;;;;5119199;27;20129;-61
2021/03/30 00:41:43;;;;;;;33.17;3.35;;;34.00;13.60;;;;;;5112882;27;20147;-60
2021/03/30 00:44:13;;;;;;;27.25;3.97;;;34.00;13.70;;;;;;5116090;27;20167;-60
2021/03/30 00:46:43;;;;;;;34.38;3.40;;;33.80;13.80;;;;;;5112236;27;20480;-62
2021/03/30 00:49:10;;;;;;;27.95;3.22;;;33.60;13.90;;;;;;5113463;27;20203;-62
2021/03/30 00:51:37;;;;;;;31.55;3.47;;;33.50;14.00;;;;;;5098728;27;20076;-60
2021/03/30 00:54:04;;;;;;;29.95;4.68;;;33.40;14.10;;;;;;5113642;27;20071;-59
2021/03/30 00:56:30;;;;;;;29.17;4.00;;;33.30;14.20;;;;;;5115935;27;20525;-60
2021/03/30 00:59:00;;;;;;;28.92;5.03;;;33.20;14.20;;;;;;5115711;27;20425;-61
2021/03/30 01:01:26;;;;;;;27.35;5.95;;;33.00;14.30;;;;;;5116239;27;20455;-60
2021/03/30 01:03:53;;;;;;;24.48;4.28;;;33.00;14.60;;;;;;5111271;27;20072;-62
2021/03/30 01:06:20;;;;;;;30.25;4.65;;;33.00;14.90;;;;;;5111642;27;20157;-62
2021/03/30 01:09:06;;;;;;;33.72;4.15;;;33.10;15.10;;;;;;5113994;27;20141;-60
2021/03/30 01:12:07;;;;;;;27.77;4.32;;;33.10;15.20;;;;;;5097459;27;20106;-61
2021/03/30 01:15:01;;;;;;;31.30;5.20;;;32.80;15.50;;;;;;5114841;27;20075;-63
2021/03/30 01:17:57;;;;;;;24.88;4.45;;;32.60;15.50;;;;;;5112433;27;20064;-63
2021/03/30 01:21:01;;;;;;;28.63;4.65;;;32.50;15.40;;;;;;5111975;27;20092;-62
2021/03/30 01:24:04;;;;;;;24.88;3.95;;;32.60;14.90;;;;;;5112348;27;20407;-65
2021/03/30 01:26:54;;;;;;;21.92;3.92;;;32.90;14.70;;;;;;5117346;27;20547;-63
2021/03/30 01:29:39;;;;;;;26.38;4.18;;;32.40;15.10;;;;;;5115183;27;20443;-61
2021/03/30 01:32:11;;;;;;;20.60;3.60;;;32.10;15.60;;;;;;5117990;27;20116;-61
2021/03/30 01:34:40;;;;;;;17.67;3.63;;;31.70;15.60;;;;;;5114605;28;20079;-61
2021/03/30 01:37:07;;;;;;;25.60;3.58;;;31.50;15.70;;;;;;5112242;27;20075;-60
2021/03/30 01:39:35;;;;;;;28.60;2.92;;;31.20;15.70;;;;;;5112450;27;20072;-61
2021/03/30 01:42:03;;;;;;;21.13;3.30;;;31.20;15.60;;;;;;5114029;28;20112;-60
2021/03/30 01:44:30;;;;;;;21.25;3.45;;;31.00;15.70;;;;;;5111994;28;20080;-61
2021/03/30 01:47:00;;;;;;;35.58;3.75;;;31.00;16.10;;;;;;5108799;28;20122;-61
2021/03/30 01:49:28;;;;;;;27.83;3.90;;;30.90;16.00;;;;;;5113757;28;20099;-60
2021/03/30 01:51:57;;;;;;;37.42;5.60;;;30.70;16.30;;;;;;5111948;28;20500;-63
2021/03/30 01:54:25;;;;;;;35.40;5.00;;;30.60;16.60;;;;;;5109151;28;20067;-60
2021/03/30 01:56:54;;;;;;;26.15;4.78;;;30.50;16.70;;;;;;5111367;28;20100;-58
2021/03/30 01:59:23;;;;;;;35.03;5.40;;;30.40;16.80;;;;;;5096940;28;20110;-58
2021/03/30 02:01:51;;;;;;;23.70;6.88;;;30.30;16.90;;;;;;5109092;28;20076;-60
2021/03/30 02:04:20;;;;;;;24.45;4.60;;;30.10;17.10;;;;;;5112440;28;20536;-61
2021/03/30 02:06:49;;;;;;;13.15;2.40;;;30.00;16.30;;;;;;5111348;28;20079;-61
2021/03/30 02:09:22;;;;;;;19.52;2.90;;;30.00;12.30;;;;;;5111510;28;20104;-60
2021/03/30 02:11:52;;;;;;;20.02;2.67;;;30.00;12.90;;;;;;5124198;27;20472;-61
2021/03/30 02:14:19;;;;;;;25.00;3.40;;;29.90;13.30;;;;;;5114639;28;20075;-60
2021/03/30 02:17:01;;;;;;;15.80;2.35;;;29.80;12.40;;;;;;5111725;28;20076;-61
2021/03/30 02:19:57;;;;;;;16.38;2.35;;;29.70;9.90;;;;;;5094480;28;20072;-58
2021/03/30 02:22:35;;;;;;;14.05;2.30;;;29.60;8.80;;;;;;5104103;28;20109;-60
2021/03/30 02:25:03;;;;;;;16.33;2.60;;;29.50;8.90;;;;;;5110953;28;20076;-60
2021/03/30 02:27:31;;;;;;;27.45;3.20;;;29.40;8.60;;;;;;5112035;28;20083;-59
2021/03/30 02:30:01;;;;;;;18.17;3.63;;;29.30;9.40;;;;;;5096201;28;20104;-57
2021/03/30 02:32:28;;;;;;;14.70;2.92;;;29.20;8.20;;;;;;5113859;27;20064;-58
2021/03/30 02:34:57;;;;;;;18.17;2.50;;;29.20;8.50;;;;;;5115897;27;20225;-57
2021/03/30 02:37:25;;;;;;;25.30;2.85;;;29.00;7.80;;;;;;5114211;27;20085;-58
2021/03/30 02:39:53;;;;;;;15.07;3.35;;;29.00;7.90;;;;;;5114937;27;20083;-58
2021/03/30 02:42:20;;;;;;;20.40;3.50;;;29.00;8.20;;;;;;5111758;27;20072;-56
2021/03/30 02:44:50;;;;;;;27.27;3.30;;;28.90;7.90;;;;;;5116774;27;20094;-57
2021/03/30 02:47:19;;;;;;;22.50;3.88;;;28.90;8.00;;;;;;5110858;27;20083;-55
2021/03/30 02:49:47;;;;;;;21.67;2.90;;;28.80;8.20;;;;;;5113147;27;20096;-57
2021/03/30 02:52:15;;;;;;;25.77;2.90;;;28.90;7.90;;;;;;5115400;27;20524;-59
2021/03/30 02:54:42;;;;;;;16.33;3.10;;;28.80;8.30;;;;;;5111365;27;20129;-57
2021/03/30 02:57:12;;;;;;;15.63;3.30;;;28.80;8.20;;;;;;5111520;27;20072;-58
2021/03/30 02:59:39;;;;;;;14.75;2.13;;;28.80;8.20;;;;;;5117024;27;20478;-58
2021/03/30 03:02:06;;;;;;;27.58;3.00;;;28.70;8.30;;;;;;5112394;27;20436;-58
2021/03/30 03:04:34;;;;;;;21.52;3.40;;;28.70;8.30;;;;;;5120888;27;20110;-57
2021/03/30 03:07:02;;;;;;;19.25;2.70;;;28.70;8.50;;;;;;5115277;27;20121;-56
2021/03/30 03:09:30;;;;;;;25.65;2.65;;;28.70;8.20;;;;;;5112226;27;20088;-57
2021/03/30 03:11:57;;;;;;;14.57;2.72;;;28.60;7.90;;;;;;5097670;28;20115;-58
2021/03/30 03:14:25;;;;;;;15.68;2.40;;;28.60;7.60;;;;;;5115240;27;20501;-57
2021/03/30 03:16:52;;;;;;;16.13;2.05;;;28.60;7.70;;;;;;5116024;27;20545;-58
2021/03/30 03:19:19;;;;;;;15.70;3.35;;;28.60;7.80;;;;;;5118273;27;20596;-56
2021/03/30 03:21:47;;;;;;;15.93;2.70;;;28.50;7.90;;;;;;5115991;27;20072;-58
2021/03/30 03:24:14;;;;;;;13.95;2.97;;;28.40;7.70;;;;;;5118135;27;20091;-59
2021/03/30 03:26:41;;;;;;;15.10;3.17;;;28.30;7.60;;;;;;5115194;27;20152;-59
2021/03/30 03:29:19;;;;;;;18.45;2.13;;;28.30;7.50;;;;;;5116976;27;20145;-57
2021/03/30 03:31:48;;;;;;;9.60;2.28;;;28.20;7.50;;;;;;5116362;27;20072;-56
2021/03/30 03:34:15;;;;;;;11.15;2.50;;;28.10;7.70;;;;;;5115583;27;20104;-58
2021/03/30 03:36:47;;;;;;;16.38;2.67;;;28.00;7.90;;;;;;5118671;27;20092;-57
2021/03/30 03:39:19;;;;;;;9.63;2.30;;;27.90;8.10;;;;;;5102557;27;20086;-55
2021/03/30 03:41:46;;;;;;;14.93;2.85;;;27.90;8.40;;;;;;5112783;27;20079;-58
2021/03/30 03:44:13;;;;;;;13.50;2.50;;;27.80;8.70;;;;;;5118703;27;20075;-56
2021/03/30 03:46:41;;;;;;;12.30;2.08;;;27.70;9.00;;;;;;5115752;27;20072;-58
2021/03/30 03:49:08;;;;;;;8.68;2.33;;;27.60;9.80;;;;;;5120398;27;20084;-57
2021/03/30 03:51:45;;;;;;;11.23;2.22;;;27.40;10.50;;;;;;5118127;27;20068;-58
2021/03/30 03:54:14;;;;;;;12.82;2.17;;;27.30;10.60;;;;;;5117800;27;20455;-59
2021/03/30 03:56:47;;;;;;;17.13;3.05;;;27.30;10.70;;;;;;5115946;27;20091;-59
2021/03/30 03:59:26;;;;;;;9.18;2.33;;;27.10;10.50;;;;;;5116375;27;20536;-59
2021/03/30 04:02:25;;;;;;;12.25;2.53;;;27.10;10.40;;;;;;5119470;27;20178;-58
2021/03/30 04:04:56;;;;;;;17.33;2.10;;;27.00;10.40;;;;;;5118206;27;20076;-59
2021/03/30 04:07:27;;;;;;;23.70;3.30;;;27.00;10.40;;;;;;5121595;27;20167;-60
2021/03/30 04:09:56;;;;;;;19.23;2.50;;;26.90;10.50;;;;;;5121483;27;20096;-59
2021/03/30 04:12:27;;;;;;;22.33;2.83;;;26.80;10.40;;;;;;5098661;27;20083;-61
2021/03/30 04:14:54;;;;;;;25.17;3.08;;;26.70;10.60;;;;;;5116307;27;20060;-60
2021/03/30 04:17:21;;;;;;;14.65;1.92;;;26.70;10.80;;;;;;5119264;27;20109;-58
2021/03/30 04:19:47;;;;;;;17.65;1.98;;;26.60;11.10;;;;;;5121524;27;20068;-58
2021/03/30 04:22:16;;;;;;;19.10;2.90;;;26.50;11.20;;;;;;5116301;27;20528;-60
2021/03/30 04:24:44;;;;;;;22.88;3.38;;;26.30;11.20;;;;;;5115983;27;20536;-59
2021/03/30 04:27:12;;;;;;;19.15;4.10;;;26.30;11.10;;;;;;5118009;27;20121;-55
2021/03/30 04:29:40;;;;;;;12.35;2.78;;;26.20;10.90;;;;;;5118170;27;20183;-57
2021/03/30 04:32:08;;;;;;;14.20;3.15;;;26.20;10.60;;;;;;5110919;27;20154;-58
2021/03/30 04:34:35;;;;;;;20.65;2.90;;;26.20;10.50;;;;;;5121331;27;20078;-57
2021/03/30 04:37:02;;;;;;;11.70;2.80;;;26.10;10.80;;;;;;5097196;28;20076;-56
2021/03/30 04:39:29;;;;;;;16.25;2.13;;;26.10;10.50;;;;;;5115836;27;20068;-58
2021/03/30 04:41:55;;;;;;;8.52;2.40;;;26.10;10.30;;;;;;5112721;27;20074;-56
2021/03/30 04:44:22;;;;;;;17.20;3.65;;;26.00;10.40;;;;;;5109977;27;20164;-57
2021/03/30 04:46:48;;;;;;;12.95;3.30;;;26.00;10.40;;;;;;5111979;27;20080;-55
2021/03/30 04:49:15;;;;;;;14.10;4.80;;;25.90;10.40;;;;;;5098250;27;20095;-54
2021/03/30 04:51:41;;;;;;;13.07;2.22;;;25.80;10.80;;;;;;5114404;27;20089;-55
2021/03/30 04:54:08;;;;;;;25.67;10.02;;;25.80;10.90;;;;;;5110756;27;20072;-58
2021/03/30 04:56:36;;;;;;;14.02;3.83;;;25.70;11.00;;;;;;5115685;27;20072;-58
2021/03/30 04:59:04;;;;;;;10.65;4.95;;;25.60;11.10;;;;;;5116369;27;20080;-59
2021/03/30 05:01:34;;;;;;;12.15;2.53;;;25.50;11.20;;;;;;5115774;27;20163;-58
2021/03/30 05:04:01;;;;;;;11.18;2.60;;;25.40;11.60;;;;;;5100437;27;20096;-60
2021/03/30 05:06:27;;;;;;;50.15;26.17;;;25.30;11.60;;;;;;5115917;27;20150;-58
2021/03/30 05:08:54;;;;;;;61.30;30.02;;;25.20;11.70;;;;;;5116160;27;20095;-58
2021/03/30 05:11:20;;;;;;;52.05;17.00;;;25.10;11.80;;;;;;5083158;27;20655;-56
2021/03/30 05:13:47;;;;;;;30.33;7.82;;;25.00;11.40;;;;;;5099720;28;20109;-56
2021/03/30 05:16:14;;;;;;;27.13;4.55;;;25.00;10.90;;;;;;5114040;27;20140;-56
2021/03/30 05:18:41;;;;;;;30.17;3.95;;;25.00;10.50;;;;;;5121082;27;20082;-57
2021/03/30 05:21:08;;;;;;;11.30;2.38;;;25.10;10.40;;;;;;5117119;27;20068;-59
2021/03/30 05:23:35;;;;;;;22.67;3.08;;;25.10;10.40;;;;;;5118497;27;20079;-56
2021/03/30 05:26:05;;;;;;;14.48;3.85;;;25.10;10.40;;;;;;5112724;27;20088;-58
2021/03/30 05:28:32;;;;;;;15.85;3.28;;;25.00;10.60;;;;;;5111531;27;20092;-58
2021/03/30 05:30:58;;;;;;;8.23;1.83;;;25.00;10.90;;;;;;5114455;27;20075;-57
2021/03/30 05:33:25;;;;;;;10.35;2.30;;;24.90;11.10;;;;;;5115966;27;20536;-55
2021/03/30 05:35:51;;;;;;;7.20;1.85;;;24.90;11.40;;;;;;5116413;27;20103;-57
2021/03/30 05:38:18;;;;;;;11.48;2.50;;;24.80;11.40;;;;;;5116558;27;20079;-56
2021/03/30 05:40:45;;;;;;;9.95;2.00;;;24.80;11.20;;;;;;5111762;27;20076;-56
2021/03/30 05:43:13;;;;;;;11.05;1.77;;;24.70;11.50;;;;;;5082728;28;20162;-57
2021/03/30 05:45:39;;;;;;;14.65;2.03;;;24.70;11.80;;;;;;5114056;28;20124;-55
2021/03/30 05:48:10;;;;;;;11.93;2.15;;;24.60;11.90;;;;;;5112557;28;20532;-56
2021/03/30 05:50:36;;;;;;;18.08;2.30;;;24.50;11.70;;;;;;5093081;28;20083;-58
2021/03/30 05:53:11;;;;;;;15.18;2.47;;;24.50;12.40;;;;;;5094370;28;20404;-53
2021/03/30 05:55:40;;;;;;;11.15;1.80;;;24.40;12.20;;;;;;5116278;28;20156;-54
2021/03/30 05:58:08;;;;;;;10.52;2.00;;;24.30;12.30;;;;;;5116203;28;20164;-56
2021/03/30 06:00:42;;;;;;;11.55;2.38;;;24.10;12.10;;;;;;5117383;28;20079;-57
2021/03/30 06:03:29;;;;;;;12.32;2.17;;;24.00;12.80;;;;;;5116181;28;20210;-58
2021/03/30 06:06:00;;;;;;;14.60;2.13;;;23.90;13.10;;;;;;5118916;27;20067;-58
2021/03/30 06:08:29;;;;;;;10.00;2.10;;;23.80;13.20;;;;;;5120233;27;20187;-56
2021/03/30 06:10:58;;;;;;;9.05;2.28;;;23.60;12.60;;;;;;5121915;27;20108;-58
2021/03/30 06:13:51;;;;;;;14.30;2.65;;;23.60;13.30;;;;;;5118548;27;20114;-55
2021/03/30 06:16:26;;;;;;;22.35;2.50;;;23.40;13.20;;;;;;5116675;27;20435;-58
2021/03/30 06:19:16;;;;;;;15.10;3.10;;;23.40;13.50;;;;;;5117356;27;20079;-56
2021/03/30 06:21:44;;;;;;;21.02;3.53;;;23.30;13.70;;;;;;5121324;27;20078;-57
2021/03/30 06:24:23;;;;;;;15.38;3.83;;;23.10;13.50;;;;;;5114227;27;20099;-54
2021/03/30 06:26:51;;;;;;;17.05;3.90;;;23.00;14.20;;;;;;5117947;27;20075;-55
2021/03/30 06:29:24;;;;;;;27.50;4.30;;;22.90;14.10;;;;;;5117475;27;20095;-54
2021/03/30 06:31:52;;;;;;;21.88;3.50;;;22.90;13.90;;;;;;5118383;27;20083;-53
2021/03/30 06:34:27;;;;;;;14.10;3.10;;;22.80;14.00;;;;;;5119297;27;20099;-54
2021/03/30 06:36:53;;;;;;;19.70;3.08;;;22.70;14.30;;;;;;5098439;27;20102;-55
2021/03/30 06:39:37;;;;;;;15.23;3.45;;;22.70;14.90;;;;;;5116675;27;20094;-57
2021/03/30 06:44:35;;;;;;;28.88;7.30;;;22.50;15.40;;;;;;5113909;27;20096;-58
2021/03/30 06:47:17;;;;;;;22.92;5.88;;;22.30;15.10;;;;;;5118162;27;20076;-57
2021/03/30 06:50:01;;;;;;;12.93;3.47;;;22.30;16.20;;;;;;5120746;27;20103;-54
2021/03/30 06:52:33;;;;;;;18.10;3.67;;;22.20;16.50;;;;;;5116936;27;20094;-58
2021/03/30 06:55:11;;;;;;;18.85;3.22;;;22.00;16.20;;;;;;5115350;27;20543;-59
2021/03/30 06:57:44;;;;;;;15.63;2.97;;;21.90;16.10;;;;;;5119252;27;20079;-55
2021/03/30 07:00:12;;;;;;;10.85;2.40;;;21.80;16.70;;;;;;5114539;27;20076;-56
2021/03/30 07:02:51;;;;;;;18.27;3.40;;;21.70;16.70;;;;;;5119563;27;20076;-54
2021/03/30 07:05:35;;;;;;;23.73;2.90;;;21.70;16.60;;;;;;5121072;27;20079;-56
2021/03/30 07:08:22;;;;;;;11.82;2.60;;;21.60;16.50;;;;;;5114131;27;20108;-58
2021/03/30 07:10:55;;;;;;;15.23;3.83;;;21.60;16.40;;;;;;5117731;27;20164;-59
2021/03/30 07:13:23;;;;;;;21.20;6.50;;;21.70;15.90;;;;;;5117358;27;20505;-56
2021/03/30 07:16:22;;;;;;;7.70;3.05;;;21.70;15.80;;;;;;5118342;27;20080;-55
2021/03/30 07:18:55;;;;;;;10.15;2.40;;;21.70;15.50;;;;;;5111728;27;20084;-59
2021/03/30 07:21:30;;;;;;;15.43;1.90;;;21.80;15.20;;;;;;5114822;27;20111;-53
2021/03/30 07:23:58;;;;;;;13.00;2.33;;;21.90;15.20;;;;;;5113749;27;20084;-57
2021/03/30 07:26:42;;;;;;;7.63;1.85;;;21.80;15.70;;;;;;5114855;27;20072;-56
2021/03/30 07:29:16;;;;;;;12.13;2.25;;;21.80;16.00;;;;;;5114663;27;20562;-57
2021/03/30 07:32:08;;;;;;;11.50;2.50;;;21.70;16.60;;;;;;5097880;27;20063;-58
2021/03/30 07:35:06;;;;;;;13.88;2.30;;;21.70;16.10;;;;;;5115211;27;20072;-57
2021/03/30 07:37:45;;;;;;;13.55;2.15;;;21.50;16.40;;;;;;5116271;27;20079;-55
2021/03/30 07:40:16;;;;;;;14.35;2.50;;;21.40;16.70;;;;;;5120192;27;20132;-59
2021/03/30 07:42:44;;;;;;;11.77;2.50;;;21.30;17.40;;;;;;5097100;28;20138;-53
2021/03/30 07:45:14;;;;;;;19.60;2.83;;;21.30;17.20;;;;;;5120334;27;20068;-54
2021/03/30 07:47:41;;;;;;;10.70;2.25;;;21.30;17.40;;;;;;5118108;27;20575;-55
2021/03/30 07:50:10;;;;;;;17.50;1.92;;;21.20;17.50;;;;;;5115724;27;20190;-55
2021/03/30 07:52:45;;;;;;;11.77;2.35;;;21.20;17.60;;;;;;5114080;27;20086;-55
2021/03/30 07:55:28;;;;;;;9.68;2.33;;;21.10;17.70;;;;;;5115275;27;20100;-54
2021/03/30 07:58:13;;;;;;;13.73;2.15;;;21.00;17.60;;;;;;5119852;27;20579;-56
2021/03/30 08:00:39;;;;;;;13.02;2.50;;;21.00;18.20;;;;;;5114260;27;20080;-57
2021/03/30 08:03:19;;;;;;;13.25;2.95;;;20.90;18.10;;;;;;5118227;27;20421;-56
2021/03/30 08:06:21;;;;;;;11.07;2.85;;;20.80;18.20;;;;;;5118139;27;20072;-56
2021/03/30 08:09:08;;;;;;;17.33;3.35;;;20.70;18.30;;;;;;5119317;27;20540;-53
2021/03/30 08:11:38;;;;;;;24.35;4.75;;;20.60;18.20;;;;;;5097275;27;20112;-56
2021/03/30 08:14:23;;;;;;;10.00;3.35;;;20.50;18.30;;;;;;5113955;27;20095;-56
2021/03/30 08:16:52;;;;;;;13.05;2.28;;;20.50;18.40;;;;;;5115453;27;20100;-56
2021/03/30 08:19:20;;;;;;;12.32;2.55;;;20.50;18.50;;;;;;5118376;27;20075;-52
2021/03/30 08:22:07;;;;;;;12.20;2.33;;;20.40;18.50;;;;;;5110645;27;20111;-55
2021/03/30 08:24:47;;;;;;;7.97;2.00;;;20.30;18.40;;;;;;5113799;27;20121;-56
2021/03/30 08:27:32;;;;;;;10.77;2.50;;;20.30;18.00;;;;;;5111957;27;20080;-53
2021/03/30 08:29:59;;;;;;;8.00;2.00;;;20.30;17.50;;;;;;5112133;27;20096;-53
2021/03/30 08:32:32;;;;;;;22.13;2.30;;;20.20;17.60;;;;;;5114402;27;20991;-56
2021/03/30 08:34:58;;;;;;;8.50;2.05;;;20.30;18.00;;;;;;5115491;27;20079;-54
2021/03/30 08:37:40;;;;;;;13.48;2.00;;;20.20;17.70;;;;;;5112008;27;20447;-57
2021/03/30 08:40:36;;;;;;;9.52;2.60;;;20.20;17.80;;;;;;5117156;27;20087;-56
2021/03/30 08:43:15;;;;;;;10.82;3.22;;;20.10;17.90;;;;;;5113304;27;20072;-57
2021/03/30 08:46:03;;;;;;;12.02;2.95;;;20.10;18.60;;;;;;5113515;27;20154;-56
2021/03/30 08:48:37;;;;;;;14.48;4.30;;;19.90;18.90;;;;;;5113213;27;20092;-57
2021/03/30 08:51:15;;;;;;;22.20;5.55;;;19.90;19.30;;;;;;5114148;27;20071;-54
2021/03/30 08:53:41;;;;;;;44.35;10.45;;;19.80;19.50;;;;;;5117205;27;20064;-57
2021/03/30 08:56:11;;;;;;;60.97;15.75;;;19.70;20.30;;;;;;5117130;27;20111;-57
2021/03/30 08:58:59;;;;;;;55.17;16.70;;;19.50;22.90;;;;;;5116895;27;20072;-57
2021/03/30 09:01:25;;;;;;;51.17;15.27;;;19.30;24.50;;;;;;5112021;27;20080;-54
2021/03/30 09:03:56;;;;;;;64.28;17.90;;;19.10;24.80;;;;;;5113461;27;20170;-58
2021/03/30 09:06:35;;;;;;;65.15;16.98;;;19.00;25.80;;;;;;5114594;27;20073;-61
2021/03/30 09:09:01;;;;;;;62.53;16.73;;;18.90;25.90;;;;;;5115826;27;20099;-56
2021/03/30 09:11:31;;;;;;;64.05;18.02;;;18.90;26.50;;;;;;5113858;27;20112;-54
2021/03/30 09:14:00;;;;;;;63.80;17.73;;;18.80;26.80;;;;;;5096679;27;20491;-58
2021/03/30 09:16:27;;;;;;;68.43;16.35;;;18.70;27.00;;;;;;5114653;27;20084;-57
2021/03/30 09:19:47;;;;;;;64.18;17.05;;;18.50;27.50;;;;;;5118746;27;20428;-56
2021/03/30 09:22:45;;;;;;;49.70;14.02;;;18.30;28.30;;;;;;5053210;28;20594;-57
2021/03/30 09:25:32;;;;;;;43.55;13.15;;;18.20;28.80;;;;;;5063877;28;20070;-54
2021/03/30 09:27:59;;;;;;;46.25;12.02;;;18.10;29.30;;;;;;5111651;27;20076;-55
2021/03/30 09:30:26;;;;;;;44.50;9.32;;;18.00;30.00;;;;;;5114531;27;20108;-57
2021/03/30 09:32:55;;;;;;;35.25;8.30;;;17.90;30.70;;;;;;5116393;27;20532;-58
2021/03/30 09:35:26;;;;;;;29.77;7.20;;;17.90;31.40;;;;;;5116174;27;20068;-55
2021/03/30 09:37:58;;;;;;;24.48;7.25;;;18.00;32.00;;;;;;5115244;28;20064;-58
2021/03/30 09:40:28;;;;;;;27.02;7.10;;;18.10;32.00;;;;;;5114478;27;20100;-57
2021/03/30 09:42:55;;;;;;;29.30;6.85;;;18.10;32.10;;;;;;5110994;28;20134;-58
2021/03/30 09:45:27;;;;;;;17.17;5.70;;;18.10;32.30;;;;;;5116310;28;20078;-58
2021/03/30 09:47:54;;;;;;;19.02;5.55;;;18.10;32.50;;;;;;5116225;28;20165;-55
2021/03/30 09:50:23;;;;;;;28.05;5.90;;;18.10;33.00;;;;;;5090047;28;20096;-54
2021/03/30 09:52:51;;;;;;;27.38;6.43;;;18.10;32.90;;;;;;5111922;28;20507;-59
2021/03/30 09:55:45;;;;;;;18.70;6.22;;;18.10;33.00;;;;;;5100170;28;20166;-57
2021/03/30 09:58:17;;;;;;;23.60;6.10;;;18.10;33.50;;;;;;5111457;28;20144;-54
2021/03/30 10:00:52;;;;;;;17.88;5.10;;;18.10;33.80;;;;;;5113247;28;20081;-56
2021/03/30 10:03:22;;;;;;;24.70;5.45;;;18.10;33.80;;;;;;5115087;28;20174;-55
2021/03/30 10:05:49;;;;;;;27.50;5.78;;;18.00;33.70;;;;;;5113453;28;20065;-56
2021/03/30 10:08:22;;;;;;;;;;;18.00;34.00;;;;;;5097068;28;20543;-57
2021/03/30 10:10:56;;;;;;;22.60;5.50;;;18.00;33.80;;;;;;5109052;28;20031;-57
2021/03/30 10:13:27;;;;;;;21.70;5.35;;;17.90;34.10;;;;;;5116838;28;20064;-53
2021/03/30 10:15:58;;;;;;;20.55;5.68;;;17.90;34.70;;;;;;5116147;28;20080;-54
2021/03/30 10:18:28;;;;;;;22.77;4.80;;;17.80;34.70;;;;;;5116891;28;20105;-54
2021/03/30 10:21:01;;;;;;;23.40;5.15;;;17.80;34.80;;;;;;5111780;28;20188;-56
2021/03/30 10:23:32;;;;;;;29.35;5.50;;;17.80;35.00;;;;;;5112554;28;20163;-55
2021/03/30 10:26:09;;;;;;;21.80;6.00;;;17.70;35.10;;;;;;5113320;28;20481;-53
2021/03/30 10:28:35;;;;;;;;;;;17.70;35.50;;;;;;5115623;28;20149;-56
2021/03/30 10:31:24;;;;;;;33.47;6.97;;;17.70;35.70;;;;;;5112476;28;20476;-54
2021/03/30 10:33:50;;;;;;;32.85;7.07;;;17.60;35.70;;;;;;5116803;28;20084;-57
2021/03/30 10:36:17;;;;;;;28.77;7.35;;;17.60;36.30;;;;;;5112772;28;20072;-54
2021/03/30 10:39:07;;;;;;;20.92;6.53;;;17.50;36.20;;;;;;5116911;28;20076;-57
2021/03/30 10:41:37;;;;;;;20.05;7.05;;;17.40;36.40;;;;;;5113695;28;20075;-59
2021/03/30 10:44:04;;;;;;;22.55;6.85;;;17.40;36.70;;;;;;5112090;28;20060;-56
2021/03/30 10:46:41;;;;;;;24.73;7.07;;;17.30;37.10;;;;;;5113074;28;20134;-58
2021/03/30 10:49:08;;;;;;;27.13;7.47;;;17.30;37.30;;;;;;5114244;28;20117;-56
2021/03/30 10:51:41;;;;;;;27.83;6.05;;;17.20;37.80;;;;;;5113310;27;20147;-56
2021/03/30 10:54:10;;;;;;;26.15;6.97;;;17.10;38.10;;;;;;5115897;27;20077;-52
2021/03/30 10:56:38;;;;;;;23.85;6.57;;;17.00;38.60;;;;;;5115976;27;20436;-55
2021/03/30 10:59:13;;;;;;;25.02;5.60;;;17.10;39.10;;;;;;5117381;27;20405;-55
2021/03/30 11:01:40;;;;;;;21.70;5.43;;;17.00;39.70;;;;;;5117687;27;20400;-55
2021/03/30 11:04:08;;;;;;;17.98;5.40;;;16.90;40.20;;;;;;5115443;27;20092;-56
2021/03/30 11:06:35;;;;;;;21.92;4.63;;;16.90;40.10;;;;;;5118425;27;20094;-56
2021/03/30 11:09:02;;;;;;;31.92;5.32;;;16.90;40.20;;;;;;5116010;27;20107;-52
2021/03/30 11:11:29;;;;;;;26.92;6.00;;;16.90;40.20;;;;;;5118370;27;21707;-55
2021/03/30 11:13:55;;;;;;;;;;;16.90;40.60;;;;;;5122590;27;20071;-57
2021/03/30 11:16:21;;;;;;;17.67;4.50;;;16.90;40.50;;;;;;5115971;27;20003;-55
2021/03/30 11:18:47;;;;;;;;;;;16.90;40.60;;;;;;5122233;27;20172;-54
2021/03/30 11:21:14;;;;;;;18.92;3.60;;;17.00;40.50;;;;;;5115729;27;20015;-57
2021/03/30 11:23:43;;;;;;;15.02;3.92;;;17.00;40.40;;;;;;5097482;27;20107;-56
2021/03/30 11:26:09;;;;;;;18.42;4.63;;;17.10;40.60;;;;;;5119620;27;20104;-56
2021/03/30 11:28:41;;;;;;;;;;;17.10;40.70;;;;;;5116019;27;20156;-53
2021/03/30 11:31:16;;;;;;;13.95;4.45;;;17.20;40.50;;;;;;5117264;27;19967;-55
2021/03/30 11:33:49;;;;;;;14.32;4.55;;;17.20;41.00;;;;;;5117810;27;20071;-53
2021/03/30 11:36:19;;;;;;;13.93;4.13;;;17.20;41.30;;;;;;5112848;27;20069;-56
2021/03/30 11:38:45;;;;;;;17.17;3.58;;;17.20;41.10;;;;;;5118416;27;20117;-54
2021/03/30 11:41:11;;;;;;;;;;;17.30;40.60;;;;;;5118705;27;20124;-55
2021/03/30 11:43:38;;;;;;;23.52;6.88;;;17.30;40.00;;;;;;5117281;27;20066;-57
2021/03/30 11:46:04;;;;;;;;;;;17.30;39.00;;;;;;5117800;27;20546;-54
2021/03/30 11:48:31;;;;;;;21.80;7.05;;;17.40;38.70;;;;;;5116727;27;19983;-56
2021/03/30 11:50:57;;;;;;;;;;;17.40;38.70;;;;;;5116953;27;20449;-54
2021/03/30 11:53:23;;;;;;;34.33;8.25;;;17.40;38.60;;;;;;5099248;28;19960;-53
2021/03/30 11:55:49;;;;;;;;;;;17.40;38.60;;;;;;5115260;27;20169;-54
2021/03/30 11:58:16;;;;;;;32.10;10.23;;;17.40;38.40;;;;;;5114606;27;20010;-57
2021/03/30 12:00:42;;;;;;;;;;;17.40;38.20;;;;;;5117632;27;20073;-54
2021/03/30 12:03:09;;;;;;;44.45;13.05;;;17.40;37.90;;;;;;5111124;27;19972;-54
2021/03/30 12:05:35;;;;;;;42.03;13.02;;;17.30;37.50;;;;;;5114832;27;20068;-56
2021/03/30 12:08:01;;;;;;;;;;;17.30;37.70;;;;;;5117379;27;20068;-55
2021/03/30 12:10:28;;;;;;;45.60;14.40;;;17.10;37.50;;;;;;5115457;27;19991;-57
2021/03/30 12:12:55;;;;;;;47.83;14.90;;;17.10;38.30;;;;;;5115781;27;20071;-56
2021/03/30 12:15:21;;;;;;;;;;;17.30;37.80;;;;;;5117926;27;20129;-55
2021/03/30 12:17:47;;;;;;;40.90;14.27;;;17.30;37.60;;;;;;5116398;27;19967;-56
2021/03/30 12:20:15;;;;;;;;;;;17.20;36.90;;;;;;5114460;27;21136;-54
2021/03/30 12:22:41;;;;;;;40.80;11.55;;;17.20;37.10;;;;;;5118419;27;19960;-53
2021/03/30 12:25:09;;;;;;;32.88;10.85;;;17.10;36.80;;;;;;5114466;27;20159;-54
2021/03/30 12:27:35;;;;;;;31.33;12.02;;;17.10;36.40;;;;;;5117194;27;20113;-55
2021/03/30 12:30:02;;;;;;;;;;;17.10;37.20;;;;;;5117606;27;20178;-57
2021/03/30 12:32:28;;;;;;;30.92;11.48;;;17.00;38.20;;;;;;5116199;27;19956;-55
2021/03/30 12:34:54;;;;;;;;;;;17.00;38.90;;;;;;5115142;27;20072;-56
2021/03/30 12:37:21;;;;;;;26.33;10.93;;;16.80;39.50;;;;;;5115172;27;19987;-57
2021/03/30 12:39:47;;;;;;;;;;;16.80;40.00;;;;;;5115701;27;20076;-54
2021/03/30 12:42:14;;;;;;;29.38;10.23;;;16.70;40.20;;;;;;5114311;27;19960;-55
2021/03/30 12:44:40;;;;;;;27.92;9.95;;;16.70;40.90;;;;;;5093618;27;20095;-56
2021/03/30 12:47:06;;;;;;;;;;;16.70;40.60;;;;;;5114281;27;20150;-55
2021/03/30 12:49:33;;;;;;;26.63;9.73;;;16.60;40.60;;;;;;5115195;27;19976;-56
2021/03/30 12:51:59;;;;;;;;;;;16.50;40.60;;;;;;5113653;27;20072;-59
2021/03/30 12:54:25;;;;;;;32.47;9.30;;;16.50;40.60;;;;;;5116418;27;19960;-56
2021/03/30 12:56:52;;;;;;;24.77;8.10;;;16.50;40.70;;;;;;5115247;27;20145;-56
2021/03/30 12:59:18;;;;;;;;;;;16.50;40.40;;;;;;5114524;27;20064;-56
2021/03/30 13:01:45;;;;;;;27.30;8.23;;;16.40;40.40;;;;;;5114589;27;20085;-57
2021/03/30 13:04:11;;;;;;;;;;;16.40;40.70;;;;;;5114439;27;20159;-54
2021/03/30 13:06:37;;;;;;;18.42;7.47;;;16.50;40.40;;;;;;5113572;27;19960;-56
2021/03/30 13:09:04;;;;;;;;;;;16.40;40.50;;;;;;5117346;27;20091;-56